Terminal Aerodrome Forecast
Issued by NWS

Home | Current Version | Previous Version | Graphics & Text | Print | Product List | Glossary On
Versions: 1 2 3 4 5 6 7 8 9 10 11 12 13 14 15 16 17 18 19 20
429
FTUS42 KMHX 202336
TAFPGV
TAF
KPGV 202336Z 2100/2124 21004KT 6SM SHRA SCT007 OVC040
     FM210200 VRB04KT 6SM SHRA SCT007 OVC020
     FM211200 22006KT 6SM -SHRA SCT020 OVC030
     FM211500 23008KT P6SM SCT025 OVC040
      AMD LTD TO CLD VIS AND WIND=

USA.gov is the U.S. government's official web portal to all federal, state and local government web resources and services.